createdAt,value
2019-05-09T00:02:33.879Z,99608.83
2019-05-09T00:05:04.546Z,99612.36
2019-05-09T00:07:35.036Z,99607.23
2019-05-09T00:10:07.008Z,99612.47
2019-05-09T00:12:37.654Z,99604.29
2019-05-09T00:15:09.100Z,99609.17
2019-05-09T00:17:39.736Z,99620.92
2019-05-09T00:20:16.608Z,99618.77
2019-05-09T00:22:47.186Z,99622.73
2019-05-09T00:25:17.693Z,99622.79
2019-05-09T00:27:48.248Z,99626.77
2019-05-09T00:30:22.671Z,99621.58
2019-05-09T00:32:53.438Z,99625.95
2019-05-09T00:35:30.032Z,99620.32
2019-05-09T00:38:05.366Z,99622.04
2019-05-09T00:40:35.871Z,99622.39
2019-05-09T00:43:06.999Z,99617.96
2019-05-09T00:46:04.073Z,99624.80
2019-05-09T00:48:43.969Z,99628.20
2019-05-09T00:51:14.530Z,99624.69
2019-05-09T00:53:44.957Z,99626.84
2019-05-09T00:58:44.390Z,99623.70
2019-05-09T01:01:15.359Z,99633.33
2019-05-09T01:03:45.969Z,99629.40
2019-05-09T01:06:16.519Z,99628.95
2019-05-09T01:08:47.032Z,99638.14
2019-05-09T01:11:17.547Z,99634.28
2019-05-09T01:13:48.580Z,99634.39
2019-05-09T01:16:19.639Z,99629.27
2019-05-09T01:18:50.288Z,99631.94
2019-05-09T01:21:21.232Z,99631.58
2019-05-09T01:23:53.977Z,99632.92
2019-05-09T01:28:47.699Z,99626.80
2019-05-09T01:31:18.594Z,99631.62
2019-05-09T01:34:00.318Z,99631.62
2019-05-09T01:37:05.070Z,99633.79
2019-05-09T01:39:36.753Z,99634.78
2019-05-09T01:42:07.812Z,99638.74
2019-05-09T01:44:38.595Z,99635.32
2019-05-09T01:49:49.683Z,99634.42
2019-05-09T01:52:20.291Z,99643.16
2019-05-09T01:54:50.810Z,99644.47
2019-05-09T01:57:23.277Z,99647.52
2019-05-09T01:59:53.509Z,99644.46
2019-05-09T02:02:24.220Z,99643.61
2019-05-09T02:04:54.872Z,99632.77
2019-05-09T02:07:25.398Z,99645.36
2019-05-09T02:09:55.929Z,99642.34
2019-05-09T02:12:33.781Z,99644.95
2019-05-09T02:15:18.058Z,99642.75
2019-05-09T02:18:08.376Z,99643.65
2019-05-09T02:20:38.918Z,99634.11
2019-05-09T02:23:09.727Z,99639.33
2019-05-09T02:25:40.413Z,99641.90
2019-05-09T02:28:11.111Z,99641.90
2019-05-09T02:30:44.925Z,99639.33
2019-05-09T02:33:14.752Z,99647.61
2019-05-09T02:35:52.829Z,99645.44
2019-05-09T02:38:19.946Z,99649.80
2019-05-09T02:40:50.143Z,99639.38
2019-05-09T02:43:20.932Z,99647.64
2019-05-09T02:46:13.303Z,99647.20
2019-05-09T02:48:44.279Z,99648.95
2019-05-09T02:51:18.175Z,99640.23
2019-05-09T02:53:48.561Z,99637.61
2019-05-09T02:56:19.474Z,99641.48
2019-05-09T02:59:00.451Z,99641.08
2019-05-09T03:01:44.182Z,99643.65
2019-05-09T03:04:14.956Z,99645.40
2019-05-09T03:06:48.895Z,99641.94
2019-05-09T03:09:18.961Z,99648.47
2019-05-09T03:11:49.920Z,99641.08
2019-05-09T03:14:20.762Z,99638.47
2019-05-09T03:16:51.429Z,99641.94
2019-05-09T03:19:21.964Z,99640.19
2019-05-09T03:21:58.433Z,99643.23
2019-05-09T03:24:29.392Z,99642.34
2019-05-09T03:27:04.324Z,99646.67
2019-05-09T03:29:39.852Z,99640.59
2019-05-09T03:32:10.498Z,99639.70
2019-05-09T03:34:41.040Z,99640.14
2019-05-09T03:37:11.888Z,99643.61
2019-05-09T03:42:39.682Z,99640.91
2019-05-09T03:44:58.199Z,99637.44
2019-05-09T03:47:34.378Z,99639.61
2019-05-09T03:50:09.708Z,99635.28
2019-05-09T03:52:40.370Z,99634.83
2019-05-09T03:55:13.456Z,99624.84
2019-05-09T03:57:49.227Z,99634.83
2019-05-09T04:00:20.748Z,99630.02
2019-05-09T04:02:51.458Z,99630.82
2019-05-09T04:05:21.978Z,99636.41
2019-05-09T04:07:52.614Z,99637.25
2019-05-09T04:10:23.043Z,99634.55
2019-05-09T04:12:56.597Z,99644.05
2019-05-09T04:17:57.850Z,99633.33
2019-05-09T04:20:28.338Z,99635.87
2019-05-09T04:22:59.565Z,99641.45
2019-05-09T04:25:32.577Z,99633.98
2019-05-09T04:28:03.964Z,99644.34
2019-05-09T04:30:34.579Z,99641.14
2019-05-09T04:33:07.226Z,99644.98
2019-05-09T04:35:38.271Z,99636.18
2019-05-09T04:38:08.752Z,99642.19
2019-05-09T04:40:44.716Z,99632.50
2019-05-09T04:43:16.861Z,99634.97
2019-05-09T04:45:48.964Z,99640.08
2019-05-09T04:48:31.649Z,99634.73
2019-05-09T04:51:03.725Z,99641.58
2019-05-09T04:53:34.485Z,99640.55
2019-05-09T04:56:27.978Z,99639.03
2019-05-09T04:58:58.453Z,99639.26
2019-05-09T05:01:44.512Z,99644.77
2019-05-09T05:04:14.749Z,99647.62
2019-05-09T05:06:44.914Z,99653.98
2019-05-09T05:09:15.123Z,99657.22
2019-05-09T05:11:47.111Z,99662.35
2019-05-09T05:14:23.944Z,99662.28
2019-05-09T05:16:58.256Z,99665.81
2019-05-09T05:19:30.915Z,99668.50
2019-05-09T05:22:07.420Z,99664.61
2019-05-09T05:24:43.047Z,99669.47
2019-05-09T05:27:13.334Z,99670.32
2019-05-09T05:29:43.539Z,99668.13
2019-05-09T05:32:19.766Z,99677.24
2019-05-09T05:35:01.723Z,99680.23
2019-05-09T05:37:32.086Z,99681.47
2019-05-09T05:40:02.312Z,99683.63
2019-05-09T05:42:32.514Z,99686.68
2019-05-09T05:45:02.900Z,99680.05
2019-05-09T05:47:48.546Z,99681.66
2019-05-09T05:50:18.951Z,99684.64
2019-05-09T05:52:49.176Z,99686.32
2019-05-09T05:55:19.532Z,99691.84
2019-05-09T05:57:49.664Z,99692.12
2019-05-09T06:00:21.886Z,99695.94
2019-05-09T06:02:52.146Z,99688.34
2019-05-09T06:05:24.766Z,99692.11
2019-05-09T06:07:57.457Z,99697.99
2019-05-09T06:10:28.987Z,99696.00
2019-05-09T06:12:59.102Z,99694.96
2019-05-09T06:15:29.366Z,99700.03
2019-05-09T06:17:59.554Z,99700.73
2019-05-09T06:20:29.897Z,99701.50
2019-05-09T06:23:00.255Z,99700.67
2019-05-09T06:25:31.006Z,99708.06
2019-05-09T06:28:01.251Z,99710.64
2019-05-09T06:30:32.380Z,99709.17
2019-05-09T06:33:05.101Z,99709.48
2019-05-09T06:35:37.749Z,99707.58
2019-05-09T06:38:07.925Z,99713.13
2019-05-09T06:40:38.430Z,99713.84
2019-05-09T06:43:18.687Z,99714.62
2019-05-09T06:46:08.176Z,99718.33
2019-05-09T06:48:38.656Z,99715.87
2019-05-09T06:51:09.009Z,99712.27
2019-05-09T06:53:39.300Z,99712.55
2019-05-09T06:56:09.509Z,99717.75
2019-05-09T06:58:40.047Z,99720.38
2019-05-09T07:01:32.456Z,99718.21
2019-05-09T07:04:09.137Z,99720.84
2019-05-09T07:06:43.737Z,99724.56
2019-05-09T07:09:21.264Z,99722.64
2019-05-09T07:11:51.547Z,99724.20
2019-05-09T07:14:32.288Z,99719.47
2019-05-09T07:17:00.966Z,99724.56
2019-05-09T07:19:31.308Z,99722.38
2019-05-09T07:22:39.365Z,99725.49
2019-05-09T07:25:43.954Z,99723.30
2019-05-09T07:28:14.267Z,99723.27
2019-05-09T07:31:03.738Z,99724.20
2019-05-09T07:33:47.863Z,99720.28
2019-05-09T07:36:18.862Z,99717.25
2019-05-09T07:38:49.308Z,99725.02
2019-05-09T07:41:19.517Z,99724.16
2019-05-09T07:43:49.701Z,99720.46
2019-05-09T07:46:28.646Z,99722.91
2019-05-09T07:49:00.106Z,99712.37
2019-05-09T07:51:30.434Z,99716.98
2019-05-09T07:54:00.684Z,99713.44
2019-05-09T07:56:30.913Z,99714.61
2019-05-09T07:59:01.156Z,99709.48
2019-05-09T08:01:31.536Z,99708.62
2019-05-09T08:04:01.771Z,99709.63
2019-05-09T08:06:32.131Z,99706.69
2019-05-09T08:09:02.410Z,99714.34
2019-05-09T08:11:32.603Z,99711.97
2019-05-09T08:14:03.055Z,99714.47
2019-05-09T08:16:33.350Z,99714.53
2019-05-09T08:19:03.601Z,99709.20
2019-05-09T08:21:33.921Z,99705.05
2019-05-09T08:24:04.141Z,99711.93
2019-05-09T08:26:34.292Z,99713.80
2019-05-09T08:29:04.652Z,99716.48
2019-05-09T08:31:34.784Z,99721.00
2019-05-09T08:34:05.069Z,99715.12
2019-05-09T08:36:35.150Z,99713.91
2019-05-09T08:39:08.449Z,99721.98
2019-05-09T08:41:38.731Z,99716.00
2019-05-09T08:44:09.288Z,99726.59
2019-05-09T08:46:39.528Z,99725.44
2019-05-09T08:49:09.906Z,99729.88
2019-05-09T08:52:09.192Z,99725.00
2019-05-09T08:54:41.858Z,99726.42
2019-05-09T08:57:12.234Z,99728.39
2019-05-09T08:59:42.465Z,99721.05
2019-05-09T09:02:16.523Z,99729.84
2019-05-09T09:04:44.587Z,99725.03
2019-05-09T09:07:14.805Z,99722.34
2019-05-09T09:09:45.031Z,99722.14
2019-05-09T09:12:27.140Z,99725.23
2019-05-09T09:14:47.796Z,99716.34
2019-05-09T09:17:18.894Z,99722.41
2019-05-09T09:19:49.209Z,99726.44
2019-05-09T09:22:19.428Z,99723.02
2019-05-09T09:24:49.655Z,99726.01
2019-05-09T09:27:19.973Z,99720.59
2019-05-09T09:29:50.188Z,99719.23
2019-05-09T09:32:20.426Z,99723.80
2019-05-09T09:34:50.629Z,99714.59
2019-05-09T09:37:20.732Z,99717.36
2019-05-09T09:39:50.887Z,99714.97
2019-05-09T09:42:21.237Z,99712.88
2019-05-09T09:44:51.448Z,99711.80
2019-05-09T09:47:23.375Z,99714.42
2019-05-09T09:49:55.133Z,99706.63
2019-05-09T09:52:25.545Z,99704.94
2019-05-09T09:54:58.079Z,99709.61
2019-05-09T09:57:28.867Z,99706.56
2019-05-09T10:00:18.056Z,99705.78
2019-05-09T10:02:48.358Z,99699.77
2019-05-09T10:05:18.613Z,99712.27
2019-05-09T10:07:48.738Z,99708.37
2019-05-09T10:10:36.574Z,99709.41
2019-05-09T10:13:10.489Z,99714.28
2019-05-09T10:15:58.704Z,99709.03
2019-05-09T10:18:50.021Z,99709.78
2019-05-09T10:21:27.667Z,99709.28
2019-05-09T10:23:57.906Z,99715.08
2019-05-09T10:26:28.485Z,99716.99
2019-05-09T10:28:58.769Z,99713.27
2019-05-09T10:31:29.101Z,99714.14
2019-05-09T10:33:59.230Z,99716.16
2019-05-09T10:36:29.487Z,99715.04
2019-05-09T10:38:59.709Z,99716.32
2019-05-09T10:41:29.908Z,99711.07
2019-05-09T10:44:17.868Z,99716.90
2019-05-09T10:46:57.765Z,99716.16
2019-05-09T10:49:24.399Z,99716.41
2019-05-09T10:51:54.592Z,99717.05
2019-05-09T10:54:24.689Z,99720.87
2019-05-09T10:56:54.812Z,99720.19
2019-05-09T10:59:24.932Z,99724.30
2019-05-09T11:01:57.720Z,99719.34
2019-05-09T11:04:28.777Z,99714.62
2019-05-09T11:06:59.048Z,99718.37
2019-05-09T11:09:29.360Z,99727.77
2019-05-09T11:12:01.213Z,99727.09
2019-05-09T11:14:36.847Z,99730.55
2019-05-09T11:17:10.659Z,99730.80
2019-05-09T11:19:35.607Z,99721.75
2019-05-09T11:22:08.036Z,99722.57
2019-05-09T11:24:45.703Z,99720.95
2019-05-09T11:27:10.495Z,99722.91
2019-05-09T11:29:40.637Z,99725.11
2019-05-09T11:32:10.782Z,99729.84
2019-05-09T11:34:41.122Z,99733.11
2019-05-09T11:37:11.288Z,99725.89
2019-05-09T11:39:42.381Z,99737.61
2019-05-09T11:42:12.672Z,99747.64
2019-05-09T11:44:42.848Z,99742.59
2019-05-09T11:47:31.450Z,99744.91
2019-05-09T11:49:47.911Z,99739.39
2019-05-09T11:52:18.331Z,99739.14
2019-05-09T11:54:48.721Z,99747.05
2019-05-09T11:57:19.279Z,99744.95
2019-05-09T11:59:49.493Z,99755.61
2019-05-09T12:02:19.680Z,99742.97
2019-05-09T12:04:49.775Z,99750.88
2019-05-09T12:07:19.892Z,99752.45
2019-05-09T12:09:50.039Z,99743.25
2019-05-09T12:12:20.263Z,99738.80
2019-05-09T12:14:50.519Z,99748.02
2019-05-09T12:17:20.633Z,99748.58
2019-05-09T12:19:50.759Z,99752.73
2019-05-09T12:22:20.902Z,99765.14
2019-05-09T12:24:53.876Z,99756.89
2019-05-09T12:27:22.744Z,99755.77
2019-05-09T12:29:52.821Z,99762.40
2019-05-09T12:32:22.995Z,99757.25
2019-05-09T12:34:53.108Z,99755.75
2019-05-09T12:37:23.284Z,99765.77
2019-05-09T12:39:53.619Z,99760.41
2019-05-09T12:42:23.760Z,99764.55
2019-05-09T12:44:53.912Z,99771.68
2019-05-09T12:47:24.163Z,99773.47
2019-05-09T12:49:54.218Z,99779.55
2019-05-09T12:52:24.336Z,99772.61
2019-05-09T12:54:54.524Z,99782.78
2019-05-09T12:57:24.671Z,99786.89
2019-05-09T12:59:54.729Z,99788.06
2019-05-09T13:02:24.897Z,99780.91
2019-05-09T13:04:54.961Z,99790.38
2019-05-09T13:07:25.195Z,99779.20
2019-05-09T13:09:58.073Z,99783.53
2019-05-09T13:12:29.124Z,99777.91
2019-05-09T13:14:59.273Z,99775.08
2019-05-09T13:17:48.259Z,99786.17
2019-05-09T13:20:19.139Z,99785.56
2019-05-09T13:22:49.463Z,99775.73
2019-05-09T13:25:19.624Z,99779.07
2019-05-09T13:27:52.735Z,99772.78
2019-05-09T13:30:21.889Z,99776.86
2019-05-09T13:32:52.198Z,99768.17
2019-05-09T13:35:22.363Z,99774.34
2019-05-09T13:37:52.604Z,99779.18
2019-05-09T13:40:22.937Z,99779.84
2019-05-09T13:42:53.233Z,99781.69
2019-05-09T13:45:23.516Z,99792.91
2019-05-09T13:47:53.739Z,99789.75
2019-05-09T13:50:24.055Z,99800.27
2019-05-09T13:52:54.140Z,99796.09
2019-05-09T13:55:24.362Z,99791.64
2019-05-09T13:57:54.815Z,99798.59
2019-05-09T14:00:25.042Z,99801.72
2019-05-09T14:02:55.205Z,99808.81
2019-05-09T14:05:25.493Z,99810.86
2019-05-09T14:08:01.364Z,99812.84
2019-05-09T14:10:28.989Z,99813.38
2019-05-09T14:13:06.871Z,99823.13
2019-05-09T14:15:31.354Z,99825.55
2019-05-09T14:18:01.575Z,99826.77
2019-05-09T14:20:31.723Z,99828.09
2019-05-09T14:23:01.852Z,99838.80
2019-05-09T14:25:32.149Z,99833.13
2019-05-09T14:28:02.529Z,99829.09
2019-05-09T14:30:32.990Z,99826.63
2019-05-09T14:33:03.229Z,99830.64
2019-05-09T14:35:33.529Z,99830.50
2019-05-09T14:38:04.179Z,99844.91
2019-05-09T14:40:34.408Z,99847.09
2019-05-09T14:43:04.766Z,99848.09
2019-05-09T14:45:35.036Z,99846.41
2019-05-09T14:48:07.820Z,99847.92
2019-05-09T14:50:38.165Z,99848.55
2019-05-09T14:53:08.846Z,99847.22
2019-05-09T14:55:42.824Z,99842.72
2019-05-09T14:58:11.133Z,99846.83
2019-05-09T15:00:41.386Z,99853.91
2019-05-09T15:03:11.624Z,99854.98
2019-05-09T15:05:41.711Z,99852.20
2019-05-09T15:08:11.864Z,99855.91
2019-05-09T15:10:42.200Z,99851.64
2019-05-09T15:13:12.468Z,99857.23
2019-05-09T15:15:42.751Z,99855.05
2019-05-09T15:18:13.072Z,99847.61
2019-05-09T15:20:43.425Z,99851.82
2019-05-09T15:23:13.627Z,99858.67
2019-05-09T15:25:43.912Z,99852.93
2019-05-09T15:28:14.148Z,99849.53
2019-05-09T15:30:44.635Z,99849.45
2019-05-09T15:33:14.794Z,99853.80
2019-05-09T15:35:45.086Z,99850.23
2019-05-09T15:38:17.945Z,99847.45
2019-05-09T15:40:48.160Z,99852.75
2019-05-09T15:43:18.758Z,99852.61
2019-05-09T15:45:58.230Z,99852.73
2019-05-09T15:48:28.665Z,99853.31
2019-05-09T15:50:59.119Z,99858.63
2019-05-09T15:53:29.373Z,99860.80
2019-05-09T15:55:59.606Z,99862.19
2019-05-09T15:58:29.927Z,99867.85
2019-05-09T16:01:00.065Z,99870.88
2019-05-09T16:03:30.455Z,99890.88
2019-05-09T16:06:00.723Z,99893.87
2019-05-09T16:08:31.294Z,99897.53
2019-05-09T16:11:01.873Z,99892.16
2019-05-09T16:13:32.298Z,99899.34
2019-05-09T16:16:02.903Z,99904.26
2019-05-09T16:18:33.267Z,99904.92
2019-05-09T16:21:03.792Z,99903.80
2019-05-09T16:23:34.481Z,99914.97
2019-05-09T16:26:07.294Z,99918.36
2019-05-09T16:31:30.736Z,99928.46
2019-05-09T16:34:01.435Z,99934.88
2019-05-09T16:36:31.902Z,99933.77
2019-05-09T16:39:07.639Z,99935.42
2019-05-09T16:41:39.123Z,99943.25
2019-05-09T16:44:09.877Z,99940.67
2019-05-09T16:46:40.308Z,99954.02
2019-05-09T16:49:11.860Z,99946.77
2019-05-09T16:51:42.297Z,99955.05
2019-05-09T16:54:12.690Z,99960.38
2019-05-09T16:56:43.026Z,99963.34
2019-05-09T16:59:13.293Z,99962.17
2019-05-09T17:01:49.304Z,99966.88
2019-05-09T17:04:19.249Z,99960.84
2019-05-09T17:06:49.724Z,99955.45
2019-05-09T17:09:20.404Z,99958.32
2019-05-09T17:11:50.717Z,99962.36
2019-05-09T17:14:21.097Z,99957.50
2019-05-09T17:16:52.900Z,99961.16
2019-05-09T17:19:23.357Z,99950.48
2019-05-09T17:22:07.713Z,99957.97
2019-05-09T17:24:40.051Z,99957.53
2019-05-09T17:27:10.364Z,99955.09
2019-05-09T17:29:40.725Z,99957.23
2019-05-09T17:32:11.380Z,99950.94
2019-05-09T17:34:42.358Z,99948.83
2019-05-09T17:37:48.003Z,99948.95
2019-05-09T17:40:19.281Z,99960.20
2019-05-09T17:42:49.776Z,99958.64
2019-05-09T17:47:58.851Z,99957.42
2019-05-09T17:50:29.227Z,99963.98
2019-05-09T17:52:59.968Z,99964.78
2019-05-09T17:55:30.691Z,99966.18
2019-05-09T17:58:01.430Z,99969.87
2019-05-09T18:00:32.049Z,99970.70
2019-05-09T18:03:02.582Z,99967.64
2019-05-09T18:05:35.865Z,99970.45
2019-05-09T18:08:07.861Z,99976.96
2019-05-09T18:10:38.212Z,99975.08
2019-05-09T18:13:08.972Z,99975.52
2019-05-09T18:15:39.591Z,99980.60
2019-05-09T18:18:10.230Z,99977.53
2019-05-09T18:20:41.138Z,99975.27
2019-05-09T18:23:12.615Z,99985.25
2019-05-09T18:25:43.176Z,99986.28
2019-05-09T18:28:13.756Z,99997.84
2019-05-09T18:33:22.053Z,100010.67
2019-05-09T18:35:52.556Z,100017.84
2019-05-09T18:38:31.387Z,100026.83
2019-05-09T18:41:01.981Z,100039.86
2019-05-09T18:43:32.518Z,100062.59
2019-05-09T18:46:03.058Z,100056.25
2019-05-09T18:48:34.013Z,100055.08
2019-05-09T18:51:04.535Z,100064.98
2019-05-09T18:53:35.217Z,100061.02
2019-05-09T18:56:05.704Z,100070.63
2019-05-09T18:58:36.642Z,100066.46
2019-05-09T19:01:07.362Z,100070.16
2019-05-09T19:03:38.060Z,100076.97
2019-05-09T19:06:08.502Z,100073.12
2019-05-09T19:08:40.210Z,100072.30
2019-05-09T19:11:12.103Z,100082.98
2019-05-09T19:13:42.582Z,100085.38
2019-05-09T19:16:35.681Z,100089.47
2019-05-09T19:19:22.594Z,100087.45
2019-05-09T19:21:56.339Z,100085.08
2019-05-09T19:24:26.847Z,100087.08
2019-05-09T19:26:57.267Z,100097.30
2019-05-09T19:29:27.637Z,100094.30
2019-05-09T19:32:00.943Z,100099.64
2019-05-09T19:34:31.348Z,100112.48
2019-05-09T19:37:01.789Z,100112.30
2019-05-09T19:39:32.412Z,100113.92
2019-05-09T19:42:02.889Z,100119.95
2019-05-09T19:44:33.412Z,100123.39
2019-05-09T19:47:03.975Z,100126.73
2019-05-09T19:49:34.621Z,100126.59
2019-05-09T19:52:05.552Z,100127.23
2019-05-09T19:54:36.233Z,100127.92
2019-05-09T19:57:07.822Z,100125.56
2019-05-09T19:59:38.290Z,100133.66
2019-05-09T20:02:08.988Z,100136.06
2019-05-09T20:04:39.450Z,100143.23
2019-05-09T20:07:09.925Z,100138.17
2019-05-09T20:09:52.115Z,100149.31
2019-05-09T20:12:32.421Z,100149.05
2019-05-09T20:15:03.031Z,100150.94
2019-05-09T20:17:33.594Z,100153.31
2019-05-09T20:20:04.211Z,100158.30
2019-05-09T20:22:35.266Z,100159.73
2019-05-09T20:25:06.150Z,100164.73
2019-05-09T20:27:36.714Z,100164.44
2019-05-09T20:30:08.046Z,100168.49
2019-05-09T20:32:38.560Z,100170.80
2019-05-09T20:35:11.007Z,100165.08
2019-05-09T20:37:41.666Z,100174.84
2019-05-09T20:40:12.756Z,100171.52
2019-05-09T20:42:43.534Z,100179.13
2019-05-09T20:45:14.509Z,100173.11
2019-05-09T20:47:46.107Z,100188.03
2019-05-09T20:50:17.270Z,100188.99
2019-05-09T20:52:48.887Z,100193.01
2019-05-09T20:55:19.527Z,100192.22
2019-05-09T20:57:52.121Z,100198.39
2019-05-09T21:03:15.599Z,100193.88
2019-05-09T21:05:46.267Z,100196.25
2019-05-09T21:08:16.732Z,100197.23
2019-05-09T21:10:47.627Z,100204.30
2019-05-09T21:13:18.374Z,100214.42
2019-05-09T21:15:49.249Z,100210.55
2019-05-09T21:18:19.956Z,100209.70
2019-05-09T21:20:51.822Z,100214.15
2019-05-09T21:23:24.859Z,100215.51
2019-05-09T21:25:54.481Z,100219.91
2019-05-09T21:28:25.043Z,100222.59
2019-05-09T21:30:55.493Z,100226.13
2019-05-09T21:33:25.965Z,100221.79
2019-05-09T21:35:56.212Z,100235.41
2019-05-09T21:38:26.410Z,100235.01
2019-05-09T21:43:27.793Z,100234.15
2019-05-09T21:45:58.030Z,100234.69
2019-05-09T21:48:28.309Z,100242.57
2019-05-09T21:50:58.626Z,100243.06
2019-05-09T21:53:40.315Z,100238.73
2019-05-09T21:56:00.914Z,100248.80
2019-05-09T21:58:31.207Z,100247.09
2019-05-09T22:01:01.994Z,100249.30
2019-05-09T22:03:35.124Z,100255.03
2019-05-09T22:06:05.766Z,100255.52
2019-05-09T22:08:36.635Z,100260.80
2019-05-09T22:11:07.140Z,100255.59
2019-05-09T22:13:37.982Z,100260.02
2019-05-09T22:16:09.020Z,100259.16
2019-05-09T22:18:39.930Z,100266.60
2019-05-09T22:21:12.322Z,100269.26
2019-05-09T22:23:55.349Z,100264.88
2019-05-09T22:26:16.352Z,100265.33
2019-05-09T22:28:46.772Z,100272.29
2019-05-09T22:31:17.038Z,100266.16
2019-05-09T22:33:47.235Z,100269.56
2019-05-09T22:36:17.497Z,100271.66
2019-05-09T22:38:47.755Z,100269.83
2019-05-09T22:41:18.055Z,100268.88
2019-05-09T22:43:48.349Z,100265.75
2019-05-09T22:46:18.649Z,100271.37
2019-05-09T22:48:48.927Z,100276.56
2019-05-09T22:51:19.219Z,100272.62
2019-05-09T22:53:49.527Z,100272.13
2019-05-09T22:56:19.820Z,100274.30
2019-05-09T22:58:50.246Z,100269.05
2019-05-09T23:01:20.545Z,100277.78
2019-05-09T23:03:50.791Z,100279.95
2019-05-09T23:06:21.343Z,100279.95
2019-05-09T23:08:51.757Z,100279.50
2019-05-09T23:11:22.090Z,100282.11
2019-05-09T23:13:52.356Z,100285.59
2019-05-09T23:16:28.523Z,100285.59
2019-05-09T23:18:58.752Z,100286.86
2019-05-09T23:21:29.736Z,100283.78
2019-05-09T23:24:10.815Z,100285.95
2019-05-09T23:26:41.036Z,100284.59
2019-05-09T23:29:11.194Z,100282.83
2019-05-09T23:31:52.853Z,100282.78
2019-05-09T23:34:23.111Z,100290.19
2019-05-09T23:36:53.300Z,100290.59
2019-05-09T23:39:25.526Z,100278.33
2019-05-09T23:41:55.856Z,100282.66
2019-05-09T23:44:25.999Z,100286.55
2019-05-09T23:46:56.207Z,100289.64
2019-05-09T23:49:26.279Z,100290.88
2019-05-09T23:51:58.790Z,100294.86
2019-05-09T23:54:47.653Z,100297.89
2019-05-09T23:57:35.686Z,100298.38
